KENW/ENW METAR and TAF weather

Enter ICAO airport designator
Station Type Date Time Source
KENW METAR 2019/08/21 03:53 UTC NOAA

KENW 210353Z AUTO 24003KT 10SM CLR 20/20 A2999 RMK AO2 SLP151 T02000200


Station Type Date Time Source
KENW Decoded METAR 2019/08/21 03:53 UTC NOAA

Station name not available
Aug 20, 2019 - 11:53 PM EDT / 2019.08.21 0353 UTC
Wind: from the WSW (240 degrees) at 3 MPH (3 KT):0
Visibility: 10 mile(s):0
Sky conditions: clear
Temperature: 68.0 F (20.0 C)
Dew Point: 68.0 F (20.0 C)
Relative Humidity: 100%
Pressure (altimeter): 29.99 in. Hg (1015 hPa)
ob: KENW 210353Z AUTO 24003KT 10SM CLR 20/20 A2999 RMK AO2 SLP151 T02000200
cycle: 4

Station Type Date Time Source
KENW TAF 2019/08/20 20:24 UTC NOAA

TAF
AMD KENW 202023Z 2020/2118 17005KT P6SM VCSH SCT040 BKN100
TEMPO 2020/2022 3SM SHRA BR BKN025 OVC100
FM210100 20008KT P6SM BKN150
FM210900 VRB03KT 5SM BR SCT050
FM211100 VRB04KT P6SM BKN015
FM211700 34007KT P6SM BKN120

Example: see airport list